Mater Bi — ECCH — position and weather

sailwx.info

Track history (hours):
 
Tides and Currents Weather Stations Pressure Air Temp Water Temp Dewpoint Dewpoint Depression Visibility Wind Speed Wind Dir Waves Ship Positions

Mater Bi

Last reported at 2017-Nov-17 11:04 UTC. Time now 2017-Nov-25 00:13 UTC.
Position N 43°19' W 002°11'.

Length 25 m.

Type: Fishing. MMSI: 224085260.

Date/timePositionNaut miles runAvg speedWind from/ knotsBaromVisibWave heightAir tempDewpointWater temp
2017-Nov-17 11:04N 43°19' W 002°11'1 9.9
2017-Nov-17 11:01N 43°19' W 002°10'5 9.6
2017-Nov-17 10:30N 43°23' W 002°07'5 9.5
2017-Nov-17 10:00N 43°27' W 002°04'5 9.8
2017-Nov-17 09:30N 43°32' W 002°01'5 9.5
2017-Nov-17 09:00N 43°36' W 001°58'5 9.7
2017-Nov-17 08:30N 43°40' W 001°55'5 9.7
2017-Nov-17 08:00N 43°44' W 001°52'5 9.8
2017-Nov-17 07:30N 43°49' W 001°48'8 9.7
2017-Nov-17 06:41N 43°56' W 001°43'2 9.7
2017-Nov-17 06:29N 43°58' W 001°42'5 9.6
2017-Nov-17 06:00N 44°02' W 001°39'5 9.5
2017-Nov-17 05:30N 44°06' W 001°36'5 9.7
2017-Nov-17 05:00N 44°10' W 001°32'2 4.5
2017-Nov-17 04:30N 44°12' W 001°31'0 0.5
2017-Nov-17 04:00N 44°12' W 001°31'0 0.5
2017-Nov-17 03:30N 44°12' W 001°30'0 0.4
2017-Nov-17 03:00N 44°12' W 001°30'0 0.1
2017-Nov-17 02:30N 44°12' W 001°30'1 1.7
2017-Nov-17 02:00N 44°12' W 001°31'4 8.1
2017-Nov-17 01:30N 44°07' W 001°32'5 9.8
2017-Nov-17 01:00N 44°03' W 001°33'4 8.6
2017-Nov-17 00:30N 43°58' W 001°34'4 8.3
2017-Nov-17 00:00N 43°55' W 001°36'2 3.9
2017-Nov-16 23:29N 43°53' W 001°37'0 0.1
2017-Nov-16 23:00N 43°53' W 001°37'0 0.4
2017-Nov-16 22:28N 43°52' W 001°37'3 1.2
2017-Nov-16 19:50N 43°55' W 001°39'0 0.3
2017-Nov-16 19:30N 43°55' W 001°39'0 0.6
2017-Nov-16 19:00N 43°55' W 001°39'5 9.4
2017-Nov-16 18:28N 43°51' W 001°43'510.1
2017-Nov-16 17:59N 43°46' W 001°47'510.0
2017-Nov-16 17:30N 43°42' W 001°50'510.0
2017-Nov-16 17:00N 43°38' W 001°54'510.2
2017-Nov-16 16:30N 43°34' W 001°58'510.0
2017-Nov-16 16:00N 43°30' W 002°02'510.0
2017-Nov-16 15:30N 43°25' W 002°05'510.0
2017-Nov-16 15:00N 43°21' W 002°09'3 1.6
2017-Nov-16 12:57N 43°19' W 002°11'510.7
2017-Nov-16 12:30N 43°22' W 002°07'610.8
2017-Nov-16 12:00N 43°27' W 002°03'510.5
2017-Nov-16 11:30N 43°31' W 001°59'510.4
2017-Nov-16 11:00N 43°36' W 001°55'510.3
2017-Nov-16 10:30N 43°40' W 001°52'510.4
2017-Nov-16 10:00N 43°44' W 001°48'510.4
2017-Nov-16 09:30N 43°49' W 001°44'510.1
2017-Nov-16 09:00N 43°53' W 001°40'610.1
2017-Nov-16 08:23N 43°59' W 001°36'410.1
2017-Nov-16 08:00N 44°02' W 001°33'510.2
2017-Nov-16 07:30N 44°06' W 001°30'2 3.3
2017-Nov-16 07:00N 44°08' W 001°29'0 0.4
2017-Nov-16 06:30N 44°08' W 001°28'0 0.2
2017-Nov-16 06:00N 44°08' W 001°28'0 0.3
2017-Nov-16 05:30N 44°08' W 001°28'1 2.3
2017-Nov-16 05:00N 44°07' W 001°28'3 6.4
2017-Nov-16 04:30N 44°10' W 001°31'0 0.4
2017-Nov-16 04:00N 44°10' W 001°30'0 0.2
2017-Nov-16 03:30N 44°10' W 001°30'0 0.3
2017-Nov-16 03:00N 44°10' W 001°30'2 3.0
2017-Nov-16 02:30N 44°08' W 001°29'4 7.2
2017-Nov-16 02:00N 44°06' W 001°33'0 0.5
2017-Nov-16 01:11N 44°06' W 001°33'0 0.1
2017-Nov-16 01:00N 44°06' W 001°33'0 0.3
2017-Nov-16 00:30N 44°06' W 001°33'2 3.5
2017-Nov-16 00:00N 44°08' W 001°31'3 6.0
2017-Nov-15 23:30N 44°05' W 001°32'2 1.5
2017-Nov-15 21:55N 44°06' W 001°30'2 5.5
2017-Nov-15 21:30N 44°07' W 001°32'0 0.4
2017-Nov-15 20:27N 44°08' W 001°32'1 1.7
2017-Nov-15 20:00N 44°09' W 001°33'3 6.4
2017-Nov-15 19:30N 44°12' W 001°31'1 1.3
2017-Nov-15 18:27N 44°10' W 001°31'2 4.4
2017-Nov-15 18:00N 44°08' W 001°32'0 0.2
2017-Nov-15 17:30N 44°08' W 001°32'1 2.0
2017-Nov-15 17:00N 44°08' W 001°34'0 0.6
2017-Nov-15 16:29N 44°08' W 001°33'0 0.5
2017-Nov-15 16:00N 44°09' W 001°33'0 0.5
2017-Nov-15 15:30N 44°09' W 001°33'0 0.4
2017-Nov-15 15:00N 44°09' W 001°33'0 0.4
2017-Nov-15 14:30N 44°09' W 001°33'0 0.4
2017-Nov-15 14:00N 44°09' W 001°33'0 0.3
2017-Nov-15 13:30N 44°09' W 001°33'0 0.3
2017-Nov-15 13:00N 44°10' W 001°33'0 0.2
2017-Nov-15 12:30N 44°10' W 001°33'0 0.4
2017-Nov-15 12:00N 44°10' W 001°33'1 0.8
2017-Nov-15 10:37N 44°11' W 001°32'0 0.3
2017-Nov-15 10:30N 44°11' W 001°32'0 0.2
2017-Nov-15 10:00N 44°11' W 001°32'0 0.1
2017-Nov-15 08:49N 44°11' W 001°32'0 0.3
2017-Nov-15 08:23N 44°11' W 001°32'1 3.4
2017-Nov-15 08:00N 44°12' W 001°31'3 1.7
2017-Nov-15 06:28N 44°10' W 001°30'7 2.0
2017-Nov-15 02:49N 44°17' W 001°33'0 0.3
2017-Nov-15 02:22N 44°17' W 001°33'0 0.3
2017-Nov-15 01:59N 44°17' W 001°33'0 0.3
2017-Nov-15 01:30N 44°17' W 001°33'0 0.3
2017-Nov-15 00:49N 44°17' W 001°33'0 0.3
2017-Nov-15 00:30N 44°17' W 001°33'0 0.4
2017-Nov-14 23:49N 44°17' W 001°32'0 0.4
2017-Nov-14 23:29N 44°17' W 001°32'3 5.3
2017-Nov-14 23:00N 44°18' W 001°29'40 4.1
2017-Nov-14 13:11N 43°42' W 001°54'2 8.9
2017-Nov-14 13:00N 43°41' W 001°55'4 8.9
2017-Nov-14 12:30N 43°37' W 001°58'4 8.2
2017-Nov-14 12:00N 43°33' W 001°60'4 8.5
2017-Nov-14 11:30N 43°29' W 002°03'4 8.5
2017-Nov-14 11:00N 43°26' W 002°06'5 9.0
2017-Nov-14 10:30N 43°22' W 002°09'  
Track history (hours):
 
Tides and Currents Weather Stations Pressure Air Temp Water Temp Dewpoint Dewpoint Depression Visibility Wind Speed Wind Dir Waves Ship Positions

Mater Bi

Last reported at 2017-Nov-17 11:04 UTC. Time now 2017-Nov-25 00:13 UTC.
Position N 43°19' W 002°11'.

Length 25 m.

Type: Fishing. MMSI: 224085260.

Date/timePositionNaut miles runAvg speedWind from/ knotsBaromVisibWave heightAir tempDewpointWater temp
2017-Nov-17 11:04N 43°19' W 002°11'1 9.9
2017-Nov-17 11:01N 43°19' W 002°10'5 9.6
2017-Nov-17 10:30N 43°23' W 002°07'5 9.5
2017-Nov-17 10:00N 43°27' W 002°04'5 9.8
2017-Nov-17 09:30N 43°32' W 002°01'5 9.5
2017-Nov-17 09:00N 43°36' W 001°58'5 9.7
2017-Nov-17 08:30N 43°40' W 001°55'5 9.7
2017-Nov-17 08:00N 43°44' W 001°52'5 9.8
2017-Nov-17 07:30N 43°49' W 001°48'8 9.7
2017-Nov-17 06:41N 43°56' W 001°43'2 9.7
2017-Nov-17 06:29N 43°58' W 001°42'5 9.6
2017-Nov-17 06:00N 44°02' W 001°39'5 9.5
2017-Nov-17 05:30N 44°06' W 001°36'5 9.7
2017-Nov-17 05:00N 44°10' W 001°32'2 4.5
2017-Nov-17 04:30N 44°12' W 001°31'0 0.5
2017-Nov-17 04:00N 44°12' W 001°31'0 0.5
2017-Nov-17 03:30N 44°12' W 001°30'0 0.4
2017-Nov-17 03:00N 44°12' W 001°30'0 0.1
2017-Nov-17 02:30N 44°12' W 001°30'1 1.7
2017-Nov-17 02:00N 44°12' W 001°31'4 8.1
2017-Nov-17 01:30N 44°07' W 001°32'5 9.8
2017-Nov-17 01:00N 44°03' W 001°33'4 8.6
2017-Nov-17 00:30N 43°58' W 001°34'4 8.3
2017-Nov-17 00:00N 43°55' W 001°36'2 3.9
2017-Nov-16 23:29N 43°53' W 001°37'0 0.1
2017-Nov-16 23:00N 43°53' W 001°37'0 0.4
2017-Nov-16 22:28N 43°52' W 001°37'3 1.2
2017-Nov-16 19:50N 43°55' W 001°39'0 0.3
2017-Nov-16 19:30N 43°55' W 001°39'0 0.6
2017-Nov-16 19:00N 43°55' W 001°39'5 9.4
2017-Nov-16 18:28N 43°51' W 001°43'510.1
2017-Nov-16 17:59N 43°46' W 001°47'510.0
2017-Nov-16 17:30N 43°42' W 001°50'510.0
2017-Nov-16 17:00N 43°38' W 001°54'510.2
2017-Nov-16 16:30N 43°34' W 001°58'510.0
2017-Nov-16 16:00N 43°30' W 002°02'510.0
2017-Nov-16 15:30N 43°25' W 002°05'510.0
2017-Nov-16 15:00N 43°21' W 002°09'3 1.6
2017-Nov-16 12:57N 43°19' W 002°11'510.7
2017-Nov-16 12:30N 43°22' W 002°07'610.8
2017-Nov-16 12:00N 43°27' W 002°03'510.5
2017-Nov-16 11:30N 43°31' W 001°59'510.4
2017-Nov-16 11:00N 43°36' W 001°55'510.3
2017-Nov-16 10:30N 43°40' W 001°52'510.4
2017-Nov-16 10:00N 43°44' W 001°48'510.4
2017-Nov-16 09:30N 43°49' W 001°44'510.1
2017-Nov-16 09:00N 43°53' W 001°40'610.1
2017-Nov-16 08:23N 43°59' W 001°36'410.1
2017-Nov-16 08:00N 44°02' W 001°33'510.2
2017-Nov-16 07:30N 44°06' W 001°30'2 3.3
2017-Nov-16 07:00N 44°08' W 001°29'0 0.4
2017-Nov-16 06:30N 44°08' W 001°28'0 0.2
2017-Nov-16 06:00N 44°08' W 001°28'0 0.3
2017-Nov-16 05:30N 44°08' W 001°28'1 2.3
2017-Nov-16 05:00N 44°07' W 001°28'3 6.4
2017-Nov-16 04:30N 44°10' W 001°31'0 0.4
2017-Nov-16 04:00N 44°10' W 001°30'0 0.2
2017-Nov-16 03:30N 44°10' W 001°30'0 0.3
2017-Nov-16 03:00N 44°10' W 001°30'2 3.0
2017-Nov-16 02:30N 44°08' W 001°29'4 7.2
2017-Nov-16 02:00N 44°06' W 001°33'0 0.5
2017-Nov-16 01:11N 44°06' W 001°33'0 0.1
2017-Nov-16 01:00N 44°06' W 001°33'0 0.3
2017-Nov-16 00:30N 44°06' W 001°33'2 3.5
2017-Nov-16 00:00N 44°08' W 001°31'3 6.0
2017-Nov-15 23:30N 44°05' W 001°32'2 1.5
2017-Nov-15 21:55N 44°06' W 001°30'2 5.5
2017-Nov-15 21:30N 44°07' W 001°32'0 0.4
2017-Nov-15 20:27N 44°08' W 001°32'1 1.7
2017-Nov-15 20:00N 44°09' W 001°33'3 6.4
2017-Nov-15 19:30N 44°12' W 001°31'1 1.3
2017-Nov-15 18:27N 44°10' W 001°31'2 4.4
2017-Nov-15 18:00N 44°08' W 001°32'0 0.2
2017-Nov-15 17:30N 44°08' W 001°32'1 2.0
2017-Nov-15 17:00N 44°08' W 001°34'0 0.6
2017-Nov-15 16:29N 44°08' W 001°33'0 0.5
2017-Nov-15 16:00N 44°09' W 001°33'0 0.5
2017-Nov-15 15:30N 44°09' W 001°33'0 0.4
2017-Nov-15 15:00N 44°09' W 001°33'0 0.4
2017-Nov-15 14:30N 44°09' W 001°33'0 0.4
2017-Nov-15 14:00N 44°09' W 001°33'0 0.3
2017-Nov-15 13:30N 44°09' W 001°33'0 0.3
2017-Nov-15 13:00N 44°10' W 001°33'0 0.2
2017-Nov-15 12:30N 44°10' W 001°33'0 0.4
2017-Nov-15 12:00N 44°10' W 001°33'1 0.8
2017-Nov-15 10:37N 44°11' W 001°32'0 0.3
2017-Nov-15 10:30N 44°11' W 001°32'0 0.2
2017-Nov-15 10:00N 44°11' W 001°32'0 0.1
2017-Nov-15 08:49N 44°11' W 001°32'0 0.3
2017-Nov-15 08:23N 44°11' W 001°32'1 3.4
2017-Nov-15 08:00N 44°12' W 001°31'3 1.7
2017-Nov-15 06:28N 44°10' W 001°30'7 2.0
2017-Nov-15 02:49N 44°17' W 001°33'0 0.3
2017-Nov-15 02:22N 44°17' W 001°33'0 0.3
2017-Nov-15 01:59N 44°17' W 001°33'0 0.3
2017-Nov-15 01:30N 44°17' W 001°33'0 0.3
2017-Nov-15 00:49N 44°17' W 001°33'0 0.3
2017-Nov-15 00:30N 44°17' W 001°33'0 0.4
2017-Nov-14 23:49N 44°17' W 001°32'0 0.4
2017-Nov-14 23:29N 44°17' W 001°32'3 5.3
2017-Nov-14 23:00N 44°18' W 001°29'40 4.1
2017-Nov-14 13:11N 43°42' W 001°54'2 8.9
2017-Nov-14 13:00N 43°41' W 001°55'4 8.9
2017-Nov-14 12:30N 43°37' W 001°58'4 8.2
2017-Nov-14 12:00N 43°33' W 001°60'4 8.5
2017-Nov-14 11:30N 43°29' W 002°03'4 8.5
2017-Nov-14 11:00N 43°26' W 002°06'5 9.0
2017-Nov-14 10:30N 43°22' W 002°09'  

Dump ship's entire track history